Nearby METAR Reports

 

KLXT - Lees Summit Muni, Missouri, USA
Distance from station: E 5mi, 9km
Updated: Wed, 22-Oct-2014 9:53am CDT
Overcast
Overcast
 Wind from SSE
Wind: SSE 8 mph , 13 km/h
Temperature: 55°F , 13°C
Dew Point: 46°F , 8°C
Humidity: 72%
Barometer: 30.22 inHg , 1023.4 hPa
Clouds: Overcast
Visibility: 10 miles , 16 km
Cloud details: Mostly cloudy 3500 ft
Overcast 4500 ft
2014/10/22 14:53 KLXT 221453Z AUTO 15007KT 10SM BKN035 OVC045 13/08 A3022 RMK AO2 SLP231 T01330078 50006
KMKC - Kansas City/Dntn, Missouri, USA
Distance from station: NW 12mi, 19km
Updated: Wed, 22-Oct-2014 9:54am CDT
Overcast
Overcast
 
Temperature: 59°F , 15°C
Dew Point: 46°F , 8°C
Humidity: 63%
Barometer: 30.20 inHg , 1022.7 hPa
Clouds: Overcast
Visibility: 10 miles , 16 km
Cloud details: Mostly cloudy 3500 ft
Mostly cloudy 4600 ft
Overcast 8500 ft
2014/10/22 14:54 KMKC 221454Z 10SM BKN035 BKN046 OVC085 15/08 A3020 RMK AO2 SLP225 T01500078 51007
 
KIXD - Olathe/Industria, Kansas, USA
Distance from station: WSW 25mi, 41km
Updated: Wed, 22-Oct-2014 9:53am CDT
Clear
Clear
 Wind from SE
Wind: SE 14 mph , 22 km/h
Temperature: 57°F , 14°C
Dew Point: 46°F , 8°C
Humidity: 67%
Barometer: 30.19 inHg , 1022.4 hPa
Clouds: Clear
Visibility: 10 miles , 16 km
2014/10/22 14:53 KIXD 221453Z 14012KT 10SM CLR 14/08 A3019 RMK AO2 SLP221 T01440083 51006
KMCI - Kansas City/Intl, Missouri, USA
Distance from station: NW 26mi, 42km
Updated: Wed, 22-Oct-2014 9:53am CDT
Mostly cloudy
Mostly cloudy
 Wind from SE
Wind: SE 14 mph , 22 km/h
Temperature: 57°F , 14°C
Dew Point: 46°F , 8°C
Humidity: 67%
Barometer: 30.19 inHg , 1022.4 hPa
Clouds: Mostly cloudy
Visibility: 10 miles , 16 km
Cloud details: Mostly cloudy 3700 ft
Mostly cloudy 8500 ft
2014/10/22 14:53 KMCI 221453Z 14012KT 10SM BKN037 BKN085 14/08 A3019 RMK AO2 SLP221 T01390083 51007
 
KRCM - Warrensburg Skyh, Missouri, USA
Distance from station: ESE 38mi, 62km
Updated: Wed, 22-Oct-2014 9:55am CDT
Clear
Clear
 Wind from SE
Wind: SE 7 mph , 11 km/h
Temperature: 55°F , 13°C
Dew Point: 46°F , 8°C
Humidity: 72%
Barometer: 30.24 inHg , 1024 hPa
Clouds: Clear
Visibility: 10 miles , 16 km
2014/10/22 14:55 KRCM 221455Z AUTO 13006KT 10SM CLR 13/08 A3024 RMK AO2
KLWC - Lawrence, Kansas, USA
Distance from station: W 40mi, 65km
Updated: Wed, 22-Oct-2014 9:52am CDT
Few Clouds
Few Clouds
 Wind from SE
Wind: SE 13 mph , 20 km/h
Temperature: 59°F , 15°C
Dew Point: 46°F , 8°C
Humidity: 63%
Barometer: 30.18 inHg , 1022 hPa
Clouds: Few Clouds
Visibility: 10 miles , 16 km
Cloud details: Few Clouds 6500 ft
2014/10/22 14:52 KLWC 221452Z AUTO 14011KT 10SM FEW065 15/08 A3018 RMK AO2 SLP219 T01500083 51007
 
KSZL - Whiteman Afb, Missouri, USA
Distance from station: ESE 53mi, 86km
Updated: Wed, 22-Oct-2014 9:58am CDT
Clear
Clear
 Wind from SSE
Wind: SSE 12 mph , 19 km/h, Gust: 17 mph , 28 km/h
Temperature: 55°F , 13°C
Dew Point: 46°F , 8°C
Humidity: 72%
Barometer: 30.24 inHg , 1024 hPa
Clouds: Clear
Visibility: 10 miles , 16 km
2014/10/22 14:58 KSZL 221458Z AUTO 15010G15KT 10SM CLR 13/08 A3024 RMK AO2 SLP243 T01330079 50010 $
KSTJ - St. Joseph, Missouri, USA
Distance from station: NNW 59mi, 95km
Updated: Wed, 22-Oct-2014 9:53am CDT
Mostly cloudy
Mostly cloudy
 Wind from SE
Wind: SE 10 mph , 17 km/h
Temperature: 57°F , 14°C
Dew Point: 46°F , 8°C
Humidity: 67%
Barometer: 30.19 inHg , 1022.4 hPa
Clouds: Mostly cloudy
Visibility: 10 miles , 16 km
Cloud details: Few Clouds 4300 ft
Mostly cloudy 6000 ft
2014/10/22 14:53 KSTJ 221453Z 14009KT 10SM FEW043 BKN060 14/08 A3019 RMK AO2 SLP221 T01390083 51007
 
KGLY - Clinton, Missouri, USA
Distance from station: SE 61mi, 98km
Updated: Wed, 22-Oct-2014 10:15am CDT
Haze, Few clouds
Haze, Few clouds
 Wind from SE
Wind: SE 10 mph , 17 km/h
Temperature: 57°F , 14°C
Dew Point: 48°F , 9°C
Humidity: 72%
Barometer: 30.25 inHg , 1024.4 hPa
Summary: Haze
Clouds: Few Clouds
Visibility: 4 miles , 6 km
Cloud details: Few Clouds 4400 ft
2014/10/22 15:15 KGLY 221515Z AUTO 14009KT 4SM HZ FEW044 14/09 A3025 RMK AO2
KFOE - Topeka/Forbes, Kansas, USA
Distance from station: W 64mi, 103km
Updated: Wed, 22-Oct-2014 9:53am CDT
Clear
Clear
 Wind from SE
Wind: SE 14 mph , 22 km/h
Temperature: 61°F , 16°C
Dew Point: 48°F , 9°C
Humidity: 63%
Barometer: 30.16 inHg , 1021.3 hPa
Clouds: Clear
Visibility: 10 miles , 16 km
2014/10/22 14:53 KFOE 221453Z 14012KT 10SM CLR 16/09 A3016 RMK AO2 SLP209 T01560094 51008
 
KDMO - Sedalia, Missouri, USA
Distance from station: ESE 72mi, 116km
Updated: Wed, 22-Oct-2014 9:53am CDT
Clear
Clear
 Wind from SSE
Wind: SSE 12 mph , 19 km/h
Temperature: 55°F , 13°C
Dew Point: 45°F , 7°C
Humidity: 67%
Barometer: 30.27 inHg , 1025.1 hPa
Clouds: Clear
Visibility: 10 miles , 16 km
2014/10/22 14:53 KDMO 221453Z AUTO 15010KT 10SM CLR 13/07 A3027 RMK AO2 SLP250 T01280072 51012
KCDJ - Chillicothe, Missouri, USA
Distance from station: NE 74mi, 120km
Updated: Wed, 22-Oct-2014 9:52am CDT

 Wind from varies
Wind: varies 6 mph , 9 km/h
Temperature: 54°F , 12°C
Dew Point: 43°F , 6°C
Humidity: 67%
Barometer: 30.26 inHg , 1024.7 hPa
2014/10/22 14:52 KCDJ 221452Z AUTO VRB05KT 12/06 A3026 RMK AO1 SLP248 T01170061 50003
 
KFNB - Falls City/Brenn, Nebraska, USA
Distance from station: NW 96mi, 154km
Updated: Wed, 22-Oct-2014 9:53am CDT
Haze, Clear
Haze, Clear
 Wind from SE
Wind: SE 12 mph , 19 km/h
Temperature: 61°F , 16°C
Dew Point: 48°F , 9°C
Humidity: 63%
Barometer: 30.14 inHg , 1020.7 hPa
Summary: Haze
Clouds: Clear
Visibility: 6 miles , 10 km
2014/10/22 14:53 KFNB 221453Z AUTO 14010KT 6SM HZ CLR 16/09 A3014 RMK AO2 SLP205 T01560089 53002
KVER - Boonville, Missouri, USA
Distance from station: E 96mi, 154km
Updated: Wed, 22-Oct-2014 10:15am CDT
Haze, Overcast
Haze, Overcast
 Wind from SSE
Wind: SSE 9 mph , 15 km/h
Temperature: 55°F , 13°C
Dew Point: 45°F , 7°C
Humidity: 67%
Barometer: 30.28 inHg , 1025.4 hPa
Summary: Haze
Clouds: Overcast
Visibility: 1 mile , 2 km
Cloud details: Overcast 700 ft
2014/10/22 15:15 KVER 221515Z AUTO 15008KT 1SM HZ VV007 13/07 A3028 RMK AO2 T01300065